Time;durP1;ratioP1;P1;durP2;ratioP2;P2;SDS_P1;SDS_P2;PMS_P1;PMS_P2;Temp;Humidity;BMP_temperature;BMP_pressure;BME280_temperature;BME280_humidity;BME280_pressure;Samples;Min_cycle;Max_cycle;Signal;HPM_P1;HPM_P2
2021/04/11 00:00:26;;;;;;;19.38;9.85;;;;;;;10.44;100.00;100138.56;5030633;28;20033;-70
2021/04/11 00:02:51;;;;;;;18.73;9.02;;;;;;;10.37;100.00;100135.47;5029843;28;20510;-70
2021/04/11 00:05:20;;;;;;;14.35;9.35;;;;;;;10.29;100.00;100129.84;5026374;28;20028;-70
2021/04/11 00:07:45;;;;;;;16.75;9.80;;;;;;;10.19;100.00;100135.94;5038161;28;20375;-69
2021/04/11 00:10:17;;;;;;;17.13;9.43;;;;;;;10.22;100.00;100136.59;5029039;28;20035;-70
2021/04/11 00:12:42;;;;;;;18.92;11.00;;;;;;;10.23;100.00;100135.63;5027004;28;20064;-70
2021/04/11 00:15:09;;;;;;;18.60;10.02;;;;;;;10.30;100.00;100128.88;5029720;28;20084;-72
2021/04/11 00:17:35;;;;;;;17.42;10.27;;;;;;;10.23;100.00;100132.97;5029409;28;20464;-69
2021/04/11 00:20:00;;;;;;;14.98;10.10;;;;;;;10.22;100.00;100131.25;5029927;28;20041;-70
2021/04/11 00:22:25;;;;;;;18.70;9.52;;;;;;;10.24;100.00;100131.13;5030749;28;20033;-70
2021/04/11 00:24:51;;;;;;;15.13;8.95;;;;;;;10.17;100.00;100130.72;5029245;28;20025;-69
2021/04/11 00:27:17;;;;;;;14.00;9.70;;;;;;;10.18;100.00;100129.75;5011125;28;20211;-69
2021/04/11 00:29:43;;;;;;;15.75;9.98;;;;;;;10.26;100.00;100121.13;5028761;28;21602;-70
2021/04/11 00:32:08;;;;;;;19.65;11.18;;;;;;;10.26;100.00;100122.00;5031545;28;20071;-70
2021/04/11 00:34:34;;;;;;;20.45;10.45;;;;;;;10.20;100.00;100122.44;5029144;28;20057;-71
2021/04/11 00:36:59;;;;;;;16.27;9.38;;;;;;;10.23;100.00;100124.06;5028568;28;20037;-70
2021/04/11 00:39:25;;;;;;;19.45;10.57;;;;;;;10.17;100.00;100111.94;5027994;28;20037;-70
2021/04/11 00:41:56;;;;;;;19.88;9.77;;;;;;;10.18;100.00;100116.34;5028993;28;20029;-71
2021/04/11 00:44:21;;;;;;;22.48;10.23;;;;;;;10.17;100.00;100101.22;5031992;28;20040;-69
2021/04/11 00:46:53;;;;;;;15.52;9.63;;;;;;;10.18;100.00;100107.44;5028559;28;20104;-70
2021/04/11 00:49:27;;;;;;;16.85;10.48;;;;;;;10.20;100.00;100110.84;5061702;28;20566;-70
2021/04/11 00:51:53;;;;;;;19.25;10.30;;;;;;;10.16;100.00;100104.84;5026812;28;20513;-70
2021/04/11 00:54:19;;;;;;;18.90;10.70;;;;;;;10.17;100.00;100106.59;5029155;28;20049;-70
2021/04/11 00:56:46;;;;;;;17.90;10.85;;;;;;;10.16;100.00;100110.19;5026573;28;20052;-71
2021/04/11 00:59:12;;;;;;;20.52;10.63;;;;;;;10.15;100.00;100095.94;5032259;28;20390;-71
2021/04/11 01:01:39;;;;;;;20.73;11.57;;;;;;;10.21;100.00;100112.56;5027581;28;20389;-70
2021/04/11 01:04:10;;;;;;;19.88;11.13;;;;;;;10.55;100.00;100122.56;5028740;28;20025;-71
2021/04/11 01:06:53;;;;;;;45.40;23.02;;;;;;;10.19;100.00;100112.66;5024712;28;20056;-70
2021/04/11 01:09:26;;;;;;;52.67;27.80;;;;;;;9.96;100.00;100118.81;5025940;28;20059;-70
2021/04/11 01:11:55;;;;;;;53.08;27.02;;;;;;;9.86;100.00;100128.47;5029603;28;20030;-70
2021/04/11 01:14:23;;;;;;;44.03;23.92;;;;;;;9.67;100.00;100123.56;5027407;28;20021;-73
2021/04/11 01:16:49;;;;;;;34.63;18.67;;;;;;;9.39;100.00;100124.59;5024622;28;20029;-72
2021/04/11 01:19:22;;;;;;;32.55;17.77;;;;;;;9.23;100.00;100131.97;5025440;28;20029;-73
2021/04/11 01:22:04;;;;;;;33.22;17.27;;;;;;;9.17;100.00;100124.34;5028744;28;20025;-72
2021/04/11 01:24:54;;;;;;;30.48;16.88;;;;;;;9.11;100.00;100124.78;5026363;28;20036;-72
2021/04/11 01:27:27;;;;;;;24.55;14.75;;;;;;;9.06;100.00;100133.13;5027405;28;20033;-73
2021/04/11 01:29:54;;;;;;;21.70;13.93;;;;;;;8.93;100.00;100149.16;5023881;28;20036;-72
2021/04/11 01:32:21;;;;;;;19.58;12.25;;;;;;;8.81;100.00;100149.09;5029247;28;20026;-73
2021/04/11 01:34:48;;;;;;;19.75;11.95;;;;;;;8.80;100.00;100142.88;5043497;28;20033;-72
2021/04/11 01:37:17;;;;;;;19.90;12.73;;;;;;;8.71;100.00;100143.47;5008499;28;20061;-72
2021/04/11 01:39:45;;;;;;;16.92;11.65;;;;;;;8.66;100.00;100142.94;5027512;28;20545;-72
2021/04/11 01:42:12;;;;;;;17.42;12.13;;;;;;;8.67;100.00;100146.47;5029582;28;20638;-72
2021/04/11 01:44:42;;;;;;;18.88;12.35;;;;;;;8.75;100.00;100154.84;5028122;28;20041;-72
2021/04/11 01:47:09;;;;;;;17.65;11.35;;;;;;;8.70;100.00;100147.09;5028564;28;20502;-72
2021/04/11 01:49:41;;;;;;;17.67;11.35;;;;;;;8.68;100.00;100143.69;5029854;28;20026;-72
2021/04/11 01:52:16;;;;;;;20.42;11.68;;;;;;;8.56;100.00;100141.81;5033307;28;20120;-72
2021/04/11 01:54:42;;;;;;;14.20;9.98;;;;;;;8.50;100.00;100139.53;5031415;28;20037;-73
2021/04/11 01:57:18;;;;;;;13.57;9.13;;;;;;;8.43;100.00;100148.91;5030192;28;20551;-72
2021/04/11 01:59:44;;;;;;;13.68;9.35;;;;;;;8.36;100.00;100135.09;5025440;28;20055;-72
2021/04/11 02:02:13;;;;;;;12.05;8.80;;;;;;;8.31;100.00;100141.69;5046898;28;20168;-72
2021/04/11 02:04:39;;;;;;;13.55;8.20;;;;;;;8.34;100.00;100138.81;5031309;28;20029;-72
2021/04/11 02:07:08;;;;;;;15.05;9.40;;;;;;;8.31;100.00;100139.00;5025323;28;20096;-72
2021/04/11 02:09:45;;;;;;;13.73;9.18;;;;;;;8.23;100.00;100147.47;5062869;28;20553;-72
2021/04/11 02:12:32;;;;;;;17.10;9.35;;;;;;;8.19;100.00;100150.47;5031076;28;20033;-72
2021/04/11 02:15:30;;;;;;;13.73;9.05;;;;;;;8.09;100.00;100156.38;5030358;28;20056;-72
2021/04/11 02:17:57;;;;;;;14.75;9.20;;;;;;;8.08;100.00;100169.84;5028739;28;20167;-72
2021/04/11 02:20:29;;;;;;;16.00;10.80;;;;;;;8.11;100.00;100175.84;5032110;28;20033;-72
2021/04/11 02:22:56;;;;;;;15.83;10.40;;;;;;;8.00;100.00;100173.00;5030742;28;20033;-73
2021/04/11 02:25:26;;;;;;;17.20;10.80;;;;;;;7.95;100.00;100175.09;5029857;28;20029;-73
2021/04/11 02:28:02;;;;;;;14.43;10.38;;;;;;;8.01;100.00;100172.06;5029866;28;20033;-73
2021/04/11 02:30:34;;;;;;;13.45;8.85;;;;;;;8.02;100.00;100176.41;5030386;28;20430;-73
2021/04/11 02:33:00;;;;;;;11.90;8.50;;;;;;;7.97;100.00;100183.88;5031905;28;20055;-72
2021/04/11 02:35:28;;;;;;;11.65;7.32;;;;;;;7.88;100.00;100176.44;5029304;28;20083;-73
2021/04/11 02:38:00;;;;;;;10.95;7.88;;;;;;;7.86;100.00;100181.00;5029456;28;20393;-73
2021/04/11 02:40:31;;;;;;;10.27;7.22;;;;;;;7.79;100.00;100195.69;5030312;28;20056;-72
2021/04/11 02:43:00;;;;;;;9.68;6.57;;;;;;;7.57;100.00;100200.63;5031336;28;20038;-72
2021/04/11 02:45:30;;;;;;;9.07;6.18;;;;;;;7.61;100.00;100197.66;5026578;28;20033;-72
2021/04/11 02:48:01;;;;;;;9.35;6.45;;;;;;;7.58;100.00;100202.34;5030611;28;20128;-72
2021/04/11 02:50:35;;;;;;;10.68;6.68;;;;;;;7.42;100.00;100199.72;5062469;28;20127;-73
2021/04/11 02:53:08;;;;;;;8.48;5.82;;;;;;;7.35;100.00;100218.84;5031772;28;20071;-73
2021/04/11 02:55:38;;;;;;;11.80;6.22;;;;;;;7.25;100.00;100227.41;5011929;28;20084;-73
2021/04/11 02:58:04;;;;;;;11.75;6.30;;;;;;;7.27;100.00;100228.19;5028564;28;20033;-73
2021/04/11 03:00:34;;;;;;;9.07;6.03;;;;;;;7.18;100.00;100231.38;5029142;28;20057;-73
2021/04/11 03:03:02;;;;;;;11.25;6.32;;;;;;;7.15;100.00;100226.25;5030210;28;20039;-73
2021/04/11 03:05:28;;;;;;;10.63;6.28;;;;;;;7.06;100.00;100220.56;5044680;28;20453;-73
2021/04/11 03:07:59;;;;;;;8.63;5.82;;;;;;;7.04;100.00;100227.78;5029148;28;20033;-73
2021/04/11 03:10:53;;;;;;;8.93;5.55;;;;;;;7.03;100.00;100232.28;5024316;28;20033;-73
2021/04/11 03:13:20;;;;;;;8.07;5.53;;;;;;;6.90;100.00;100236.59;5028984;28;20033;-73
2021/04/11 03:15:49;;;;;;;7.25;5.10;;;;;;;6.84;100.00;100236.94;5029361;28;20034;-73
2021/04/11 03:18:17;;;;;;;7.32;5.20;;;;;;;6.69;100.00;100232.47;5027709;28;20029;-73
2021/04/11 03:20:45;;;;;;;8.18;5.75;;;;;;;6.67;100.00;100234.34;5029276;28;20125;-73
2021/04/11 03:23:18;;;;;;;7.72;5.35;;;;;;;6.63;100.00;100232.81;5030196;28;20029;-72
2021/04/11 03:25:46;;;;;;;7.43;5.45;;;;;;;6.63;100.00;100230.16;5025826;28;20037;-72
2021/04/11 03:28:25;;;;;;;6.57;4.30;;;;;;;6.56;100.00;100237.63;5023621;28;20029;-72
2021/04/11 03:31:04;;;;;;;6.50;4.50;;;;;;;6.52;100.00;100241.41;5028881;28;20033;-72
2021/04/11 03:33:38;;;;;;;7.20;4.97;;;;;;;6.50;100.00;100240.63;5028862;28;20502;-72
2021/04/11 03:36:10;;;;;;;8.10;4.90;;;;;;;6.44;100.00;100243.63;5039770;28;20034;-72
2021/04/11 03:38:37;;;;;;;7.25;5.18;;;;;;;6.29;100.00;100232.03;5029086;28;20457;-72
2021/04/11 03:41:05;;;;;;;7.35;4.82;;;;;;;6.30;100.00;100235.53;5028857;28;20137;-72
2021/04/11 03:43:47;;;;;;;6.43;4.57;;;;;;;6.32;100.00;100236.31;5030056;28;20108;-72
2021/04/11 03:46:45;;;;;;;6.57;4.43;;;;;;;6.31;100.00;100232.78;5038210;28;20036;-72
2021/04/11 03:49:28;;;;;;;8.88;5.63;;;;;;;6.22;100.00;100235.97;5022631;28;20033;-72
2021/04/11 03:51:59;;;;;;;7.65;4.75;;;;;;;6.17;100.00;100235.34;5028314;28;20042;-72
2021/04/11 03:54:38;;;;;;;7.88;4.65;;;;;;;6.13;100.00;100227.59;5027416;28;20033;-72
2021/04/11 03:57:12;;;;;;;6.70;4.95;;;;;;;6.10;100.00;100239.28;5027834;28;20866;-72
2021/04/11 03:59:49;;;;;;;7.97;5.30;;;;;;;6.14;100.00;100256.81;5028095;28;20029;-72
2021/04/11 04:02:18;;;;;;;7.18;5.20;;;;;;;6.14;100.00;100256.81;5028639;28;20030;-72
2021/04/11 04:04:46;;;;;;;7.82;5.53;;;;;;;6.10;100.00;100255.28;5028038;28;20091;-72
2021/04/11 04:07:16;;;;;;;6.60;4.90;;;;;;;6.19;100.00;100254.75;5027416;28;20033;-72
2021/04/11 04:10:08;;;;;;;9.75;5.75;;;;;;;6.19;100.00;100276.06;5040220;28;20033;-72
2021/04/11 04:12:56;;;;;;;8.57;5.88;;;;;;;6.01;100.00;100285.06;5025899;28;20034;-72
2021/04/11 04:15:41;;;;;;;8.40;5.75;;;;;;;6.02;100.00;100284.13;5026472;28;20033;-72
2021/04/11 04:18:23;;;;;;;8.27;6.35;;;;;;;5.93;100.00;100276.59;5027750;28;20025;-72
2021/04/11 04:20:59;;;;;;;11.27;7.78;;;;;;;5.80;100.00;100272.84;5031917;28;20466;-72
2021/04/11 04:23:48;;;;;;;11.35;7.75;;;;;;;5.90;100.00;100276.75;5028320;28;20040;-71
2021/04/11 04:26:32;;;;;;;9.95;6.85;;;;;;;5.89;100.00;100288.34;5056075;28;20090;-72
2021/04/11 04:29:01;;;;;;;10.98;7.97;;;;;;;5.94;100.00;100291.63;5027425;28;20486;-72
2021/04/11 04:31:51;;;;;;;12.68;8.85;;;;;;;5.93;100.00;100284.56;5029376;28;20113;-72
2021/04/11 04:34:49;;;;;;;15.77;9.13;;;;;;;5.92;100.00;100290.88;5027390;28;20032;-72
2021/04/11 04:37:27;;;;;;;13.43;10.27;;;;;;;5.70;100.00;100299.06;5027291;28;20509;-71
2021/04/11 04:40:12;;;;;;;14.68;10.32;;;;;;;5.65;100.00;100312.63;5021468;28;20069;-72
2021/04/11 04:42:49;;;;;;;17.13;10.82;;;;;;;5.58;100.00;100305.00;5025185;28;20029;-72
2021/04/11 04:45:27;;;;;;;24.27;13.60;;;;;;;5.56;100.00;100317.53;5026503;28;20453;-72
2021/04/11 04:48:14;;;;;;;18.20;12.32;;;;;;;5.53;100.00;100320.34;5011612;28;20037;-71
2021/04/11 04:51:06;;;;;;;25.55;13.68;;;;;;;5.37;100.00;100311.41;5024648;28;20022;-72
2021/04/11 04:54:08;;;;;;;20.63;12.60;;;;;;;5.35;100.00;100313.28;5026788;28;20033;-71
2021/04/11 04:56:42;;;;;;;20.98;13.35;;;;;;;5.34;100.00;100317.72;5027367;28;20405;-72
2021/04/11 04:59:20;;;;;;;21.85;14.23;;;;;;;5.37;100.00;100338.03;5041344;28;20024;-71
2021/04/11 05:02:05;;;;;;;19.65;12.90;;;;;;;5.27;100.00;100342.91;5059784;28;20087;-71
2021/04/11 05:04:48;;;;;;;19.38;12.98;;;;;;;5.21;100.00;100359.19;5024062;28;20053;-72
2021/04/11 05:07:19;;;;;;;20.42;12.30;;;;;;;5.23;100.00;100359.97;5055645;28;20044;-72
2021/04/11 05:09:56;;;;;;;24.80;14.27;;;;;;;5.18;100.00;100356.69;5026125;28;20490;-71
2021/04/11 05:13:04;;;;;;;23.70;13.27;;;;;;;5.16;100.00;100355.88;5023502;28;20053;-71
2021/04/11 05:16:24;;;;;;;22.23;12.57;;;;;;;5.12;100.00;100365.78;5027171;28;20033;-71
2021/04/11 05:19:18;;;;;;;21.60;14.05;;;;;;;5.10;100.00;100372.13;4996129;28;20073;-71
2021/04/11 05:22:15;;;;;;;22.42;14.00;;;;;;;5.17;100.00;100378.91;5024528;28;20049;-72
2021/04/11 05:24:52;;;;;;;20.17;13.30;;;;;;;5.21;100.00;100375.16;5027931;28;20102;-71
2021/04/11 05:27:28;;;;;;;21.92;13.70;;;;;;;5.24;100.00;100375.00;5039286;28;20141;-72
2021/04/11 05:30:10;;;;;;;22.20;14.23;;;;;;;5.29;100.00;100386.28;5026078;28;20025;-71
2021/04/11 05:32:35;;;;;;;22.55;12.90;;;;;;;5.31;100.00;100394.22;5025172;28;20045;-72
2021/04/11 05:35:02;;;;;;;21.10;13.10;;;;;;;5.26;100.00;100405.06;5025941;28;20033;-71
2021/04/11 05:37:59;;;;;;;20.90;12.88;;;;;;;5.26;100.00;100413.03;5028049;28;20034;-72
2021/04/11 05:40:26;;;;;;;22.13;11.68;;;;;;;5.22;100.00;100414.13;5021225;28;20448;-72
2021/04/11 05:43:00;;;;;;;21.52;11.35;;;;;;;5.25;100.00;100413.97;5029787;28;20056;-72
2021/04/11 05:45:36;;;;;;;21.70;12.82;;;;;;;5.26;100.00;100413.03;5026489;28;20022;-72
2021/04/11 05:48:17;;;;;;;22.25;11.73;;;;;;;5.14;100.00;100416.28;5024212;28;20061;-71
2021/04/11 05:51:02;;;;;;;17.35;10.18;;;;;;;5.15;100.00;100410.03;5023014;28;20103;-72
2021/04/11 05:53:34;;;;;;;19.25;10.48;;;;;;;5.09;100.00;100411.16;5043028;28;20029;-72
2021/04/11 05:56:05;;;;;;;18.52;11.57;;;;;;;5.08;100.00;100416.56;5030902;28;20084;-72
2021/04/11 05:58:49;;;;;;;17.00;9.98;;;;;;;5.02;100.00;100417.72;5033444;28;20041;-72
2021/04/11 06:01:20;;;;;;;17.98;10.77;;;;;;;5.01;100.00;100409.78;5023292;28;20417;-72
2021/04/11 06:03:54;;;;;;;19.02;10.13;;;;;;;4.98;100.00;100409.94;5012592;28;20070;-72
2021/04/11 06:06:26;;;;;;;16.42;10.00;;;;;;;4.98;100.00;100413.47;5023077;28;20044;-72
2021/04/11 06:09:29;;;;;;;17.15;10.35;;;;;;;5.07;100.00;100417.47;5026036;28;20028;-72
2021/04/11 06:11:57;;;;;;;20.73;11.33;;;;;;;5.09;100.00;100428.94;5026853;28;20457;-72
2021/04/11 06:14:37;;;;;;;16.00;9.88;;;;;;;5.09;100.00;100418.28;5030654;28;20287;-72
2021/04/11 06:17:13;;;;;;;19.17;9.68;;;;;;;5.12;100.00;100434.94;5025756;28;20087;-72
2021/04/11 06:19:43;;;;;;;18.80;9.20;;;;;;;5.19;100.00;100446.19;5027086;28;20037;-72
2021/04/11 06:22:22;;;;;;;17.70;9.70;;;;;;;5.13;100.00;100443.81;5027970;28;20052;-72
2021/04/11 06:24:58;;;;;;;15.85;9.23;;;;;;;5.16;100.00;100460.50;5022181;28;20047;-72
2021/04/11 06:27:27;;;;;;;16.92;9.13;;;;;;;5.20;100.00;100469.19;5026498;28;20109;-72
2021/04/11 06:29:57;;;;;;;17.85;9.20;;;;;;;5.18;100.00;100460.44;5025774;28;20030;-72
2021/04/11 06:32:26;;;;;;;18.23;9.43;;;;;;;5.23;100.00;100463.75;5030423;28;20037;-71
2021/04/11 06:34:59;;;;;;;16.45;9.73;;;;;;;5.25;100.00;100477.81;5035001;28;20041;-71
2021/04/11 06:37:27;;;;;;;13.48;9.07;;;;;;;5.27;100.00;100486.59;5029529;28;20041;-72
2021/04/11 06:39:55;;;;;;;14.38;9.10;;;;;;;5.35;100.00;100494.25;5030191;28;20120;-72
2021/04/11 06:42:39;;;;;;;15.10;8.68;;;;;;;5.24;100.00;100510.72;5013893;28;20022;-71
2021/04/11 06:45:07;;;;;;;15.93;9.15;;;;;;;5.24;100.00;100513.38;5028225;28;20051;-72
2021/04/11 06:47:45;;;;;;;12.20;8.57;;;;;;;5.21;100.00;100497.53;5029085;28;20033;-72
2021/04/11 06:50:20;;;;;;;15.85;8.60;;;;;;;5.22;100.00;100509.91;5029882;28;20032;-71
2021/04/11 06:53:09;;;;;;;14.13;8.63;;;;;;;5.26;100.00;100517.66;5030511;28;20033;-71
2021/04/11 06:55:52;;;;;;;14.57;8.02;;;;;;;5.21;100.00;100517.03;5031833;28;20068;-71
2021/04/11 06:58:48;;;;;;;16.63;9.13;;;;;;;5.24;100.00;100508.06;5041220;28;20026;-72
2021/04/11 07:02:00;;;;;;;15.13;8.77;;;;;;;5.23;100.00;100501.88;5027556;28;20043;-72
2021/04/11 07:04:25;;;;;;;14.48;8.77;;;;;;;5.16;100.00;100496.88;5028406;28;20538;-71
2021/04/11 07:07:28;;;;;;;11.60;8.23;;;;;;;5.24;100.00;100505.38;5027969;28;20125;-71
2021/04/11 07:10:31;;;;;;;13.60;7.90;;;;;;;5.22;100.00;100501.94;5027984;28;20029;-71
2021/04/11 07:13:25;;;;;;;12.48;7.32;;;;;;;5.20;100.00;100493.13;5029965;28;20056;-71
2021/04/11 07:16:09;;;;;;;11.27;7.43;;;;;;;5.22;100.00;100499.25;5030970;28;20429;-72
2021/04/11 07:18:51;;;;;;;8.98;6.38;;;;;;;5.23;100.00;100498.34;5030795;28;20034;-71
2021/04/11 07:22:03;;;;;;;8.05;4.95;;;;;;;5.18;100.00;100506.53;5027023;28;20050;-71
2021/04/11 07:24:56;;;;;;;8.73;5.60;;;;;;;5.13;100.00;100510.31;4992241;28;20193;-71
2021/04/11 07:27:44;;;;;;;9.27;5.35;;;;;;;5.16;100.00;100516.38;5030868;28;20060;-72
2021/04/11 07:30:18;;;;;;;7.72;5.18;;;;;;;5.13;100.00;100510.31;5029598;28;20490;-72
2021/04/11 07:32:58;;;;;;;8.85;5.72;;;;;;;5.17;100.00;100523.44;5028255;28;20033;-71
2021/04/11 07:35:40;;;;;;;7.95;5.95;;;;;;;5.19;100.00;100520.69;5029657;28;20080;-71
2021/04/11 07:38:08;;;;;;;8.83;6.20;;;;;;;5.19;100.00;100526.88;5027245;28;20393;-71
2021/04/11 07:41:03;;;;;;;8.07;6.25;;;;;;;5.17;100.00;100527.88;5028091;28;20037;-71
2021/04/11 07:43:42;;;;;;;8.27;6.35;;;;;;;5.21;100.00;100525.00;5014994;28;20045;-71
2021/04/11 07:46:33;;;;;;;8.30;5.30;;;;;;;5.22;100.00;100539.19;5028425;28;20395;-71
2021/04/11 07:49:09;;;;;;;9.95;5.75;;;;;;;5.26;100.00;100540.75;5030956;28;20029;-72
2021/04/11 07:51:41;;;;;;;8.77;6.15;;;;;;;5.20;100.00;100541.03;5030942;28;20061;-71
2021/04/11 07:54:25;;;;;;;9.07;5.70;;;;;;;5.24;100.00;100537.31;5032718;28;20037;-72
2021/04/11 07:57:02;;;;;;;8.25;5.50;;;;;;;5.24;100.00;100539.97;5029040;28;20091;-72
2021/04/11 07:59:45;;;;;;;8.40;5.55;;;;;;;5.17;100.00;100559.81;5038223;28;20051;-71
2021/04/11 08:02:17;;;;;;;9.70;5.32;;;;;;;5.27;100.00;100563.78;5031230;28;20505;-72
2021/04/11 08:05:01;;;;;;;9.13;5.85;;;;;;;5.31;100.00;100568.00;5041958;28;20037;-72
2021/04/11 08:07:39;;;;;;;6.90;5.57;;;;;;;5.30;100.00;100568.97;5031378;28;20089;-71
2021/04/11 08:10:11;;;;;;;8.00;4.90;;;;;;;5.31;100.00;100573.34;5036325;28;20033;-72
2021/04/11 08:12:58;;;;;;;7.97;5.78;;;;;;;5.34;100.00;100578.53;5029034;28;20052;-72
2021/04/11 08:15:28;;;;;;;6.28;5.03;;;;;;;5.33;100.00;100582.13;5037024;28;20523;-72
2021/04/11 08:18:09;;;;;;;6.78;5.05;;;;;;;5.23;100.00;100591.47;5033642;28;20029;-72
2021/04/11 08:21:14;;;;;;;7.03;5.18;;;;;;;5.22;100.00;100592.41;5031409;28;20079;-71
2021/04/11 08:24:12;;;;;;;6.45;5.25;;;;;;;5.33;100.00;100598.09;5031702;28;20615;-72
2021/04/11 08:27:07;;;;;;;6.78;5.07;;;;;;;5.26;100.00;100613.47;5030435;28;20065;-71
2021/04/11 08:29:54;;;;;;;9.05;5.65;;;;;;;5.22;100.00;100613.69;5028481;28;20034;-71
2021/04/11 08:32:22;;;;;;;6.22;5.40;;;;;;;5.27;100.00;100625.84;5023222;28;20037;-71
2021/04/11 08:35:25;;;;;;;7.93;6.10;;;;;;;5.24;100.00;100623.34;5028045;28;20126;-71
2021/04/11 08:38:16;;;;;;;8.10;5.18;;;;;;;5.29;100.00;100620.47;5029495;28;20112;-72
2021/04/11 08:41:01;;;;;;;8.32;5.95;;;;;;;5.41;100.00;100614.59;5036810;28;20474;-71
2021/04/11 08:43:42;;;;;;;6.80;5.18;;;;;;;5.45;100.00;100629.50;5024043;28;20140;-71
2021/04/11 08:46:42;;;;;;;7.60;5.07;;;;;;;5.32;100.00;100641.59;5028852;28;20117;-72
2021/04/11 08:49:25;;;;;;;5.90;4.53;;;;;;;5.35;100.00;100646.81;4980492;28;20482;-71
2021/04/11 08:52:00;;;;;;;7.90;4.13;;;;;;;5.38;100.00;100643.13;5026147;28;20541;-71
2021/04/11 08:54:44;;;;;;;7.43;4.07;;;;;;;5.35;100.00;100646.81;5036486;28;20112;-71
2021/04/11 08:57:33;;;;;;;6.78;4.00;;;;;;;5.21;100.00;100636.75;5040106;28;20048;-71
2021/04/11 09:00:20;;;;;;;6.95;4.47;;;;;;;5.25;100.00;100648.13;5042762;28;20028;-72
2021/04/11 09:03:04;;;;;;;7.72;4.93;;;;;;;5.36;100.00;100643.22;5039111;28;20533;-70
2021/04/11 09:05:45;;;;;;;6.65;5.18;;;;;;;5.31;100.00;100645.19;5036801;28;20035;-72
2021/04/11 09:08:31;;;;;;;7.65;5.53;;;;;;;5.31;100.00;100652.34;5028479;28;20091;-71
2021/04/11 09:11:35;;;;;;;8.88;5.20;;;;;;;5.27;100.00;100657.78;5025899;28;20583;-71
2021/04/11 09:14:16;;;;;;;6.20;4.70;;;;;;;5.34;100.00;100668.16;5007056;28;20029;-71
2021/04/11 09:17:00;;;;;;;5.22;4.13;;;;;;;5.37;100.00;100662.72;5006345;28;20049;-71
2021/04/11 09:19:34;;;;;;;6.47;4.60;;;;;;;5.30;100.00;100667.44;5026025;28;20037;-71
2021/04/11 09:22:38;;;;;;;7.82;4.35;;;;;;;5.40;100.00;100667.88;5043819;28;20049;-71
2021/04/11 09:25:24;;;;;;;4.38;3.50;;;;;;;5.46;100.00;100673.81;5029356;28;20029;-71
2021/04/11 09:27:59;;;;;;;6.35;4.63;;;;;;;5.47;100.00;100675.53;5039816;28;20191;-71
2021/04/11 09:30:49;;;;;;;4.18;3.53;;;;;;;5.47;100.00;100680.88;5029951;28;20482;-72
2021/04/11 09:33:31;;;;;;;5.95;3.60;;;;;;;5.51;100.00;100682.47;5024930;28;20298;-71
2021/04/11 09:36:21;;;;;;;5.88;4.38;;;;;;;5.41;100.00;100689.13;5030258;28;20041;-71
2021/04/11 09:39:08;;;;;;;4.55;3.00;;;;;;;5.48;100.00;100690.59;5034828;28;20032;-71
2021/04/11 09:41:58;;;;;;;4.40;3.60;;;;;;;5.41;100.00;100690.91;5026864;28;20025;-71
2021/04/11 09:44:45;;;;;;;6.13;3.53;;;;;;;5.41;100.00;100697.09;5023983;28;20029;-72
2021/04/11 09:47:17;;;;;;;3.53;2.67;;;;;;;5.61;100.00;100709.56;5027511;28;20478;-71
2021/04/11 09:50:06;;;;;;;4.95;3.80;;;;;;;5.67;100.00;100707.50;5030186;28;20033;-71
2021/04/11 09:52:31;;;;;;;5.15;3.88;;;;;;;5.68;100.00;100714.53;5043705;28;20033;-71
2021/04/11 09:55:13;;;;;;;6.32;3.20;;;;;;;5.77;100.00;100717.72;5027430;28;20128;-71
2021/04/11 09:57:51;;;;;;;5.25;2.40;;;;;;;5.74;100.00;100721.38;5025948;28;20036;-71
2021/04/11 10:00:31;;;;;;;2.70;2.17;;;;;;;5.74;100.00;100731.19;5027152;28;20033;-71
2021/04/11 10:03:15;;;;;;;2.58;1.55;;;;;;;5.72;100.00;100727.72;5029446;28;20065;-69
2021/04/11 10:06:13;;;;;;;3.30;2.05;;;;;;;5.81;100.00;100727.28;5033924;28;20227;-72
2021/04/11 10:09:09;;;;;;;2.63;1.70;;;;;;;5.88;100.00;100723.47;5030863;28;20038;-71
2021/04/11 10:11:57;;;;;;;2.85;1.55;;;;;;;5.83;100.00;100738.75;5030650;28;20045;-71
2021/04/11 10:14:58;;;;;;;2.00;1.60;;;;;;;5.77;100.00;100747.00;5042345;28;20084;-70
2021/04/11 10:17:48;;;;;;;3.95;2.10;;;;;;;5.77;100.00;100745.22;5027295;28;20043;-71
2021/04/11 10:20:22;;;;;;;4.35;1.85;;;;;;;5.62;100.00;100751.19;5042546;28;20045;-72
2021/04/11 10:23:07;;;;;;;2.40;1.77;;;;;;;5.63;100.00;100750.28;5034205;28;20471;-71
2021/04/11 10:25:53;;;;;;;3.42;1.75;;;;;;;5.61;100.00;100741.50;5031424;28;20037;-71
2021/04/11 10:28:24;;;;;;;3.40;1.85;;;;;;;5.54;100.00;100745.38;5035749;28;20108;-73
2021/04/11 10:31:01;;;;;;;2.13;1.48;;;;;;;5.66;100.00;100747.50;5032082;28;20018;-70
2021/04/11 10:33:39;;;;;;;2.95;1.70;;;;;;;5.60;100.00;100756.63;5031234;28;20101;-71
2021/04/11 10:36:11;;;;;;;2.10;1.80;;;;;;;5.58;100.00;100769.13;5030247;28;20073;-71
2021/04/11 10:38:42;;;;;;;2.58;2.10;;;;;;;5.62;100.00;100760.06;5026240;28;20069;-71
2021/04/11 10:41:50;;;;;;;2.00;1.80;;;;;;;5.60;100.00;100767.25;5031564;28;20072;-72
2021/04/11 10:44:28;;;;;;;3.42;2.35;;;;;;;5.60;100.00;100761.06;5027389;28;20416;-72
2021/04/11 10:47:21;;;;;;;4.57;3.10;;;;;;;5.66;100.00;100772.31;5031294;28;20029;-72
2021/04/11 10:50:20;;;;;;;2.77;1.97;;;;;;;5.53;100.00;100765.78;5027559;28;20061;-70
2021/04/11 10:52:54;;;;;;;7.38;2.70;;;;;;;5.57;100.00;100771.84;5031094;28;20029;-72
2021/04/11 10:55:41;;;;;;;4.25;3.08;;;;;;;5.68;100.00;100775.75;5042585;28;20474;-72
2021/04/11 10:58:25;;;;;;;3.50;2.50;;;;;;;5.67;100.00;100765.19;5029994;28;20045;-70
2021/04/11 11:01:09;;;;;;;4.88;2.70;;;;;;;5.90;100.00;100774.88;5028720;28;20041;-71
2021/04/11 11:03:52;;;;;;;3.42;2.40;;;;;;;5.91;100.00;100777.47;5032539;28;20569;-71
2021/04/11 11:06:44;;;;;;;4.28;2.40;;;;;;;5.85;100.00;100775.06;5026703;28;20037;-71
2021/04/11 11:09:41;;;;;;;4.70;2.60;;;;;;;5.89;100.00;100775.81;5030018;28;20453;-71
2021/04/11 11:12:35;;;;;;;4.35;2.60;;;;;;;5.92;100.00;100779.22;5028860;28;20049;-72
2021/04/11 11:15:22;;;;;;;4.90;2.30;;;;;;;5.95;100.00;100788.84;5030586;28;20036;-71
2021/04/11 11:17:59;;;;;;;2.60;2.00;;;;;;;5.99;100.00;100793.97;5030636;28;20627;-71
2021/04/11 11:21:02;;;;;;;4.43;2.45;;;;;;;6.08;100.00;100800.69;5030501;28;20046;-71
2021/04/11 11:23:51;;;;;;;3.97;2.53;;;;;;;6.10;100.00;100804.19;5030652;28;20064;-71
2021/04/11 11:26:51;;;;;;;5.82;2.60;;;;;;;6.18;100.00;100814.47;5064837;28;20036;-71
2021/04/11 11:29:56;;;;;;;7.20;2.80;;;;;;;6.18;100.00;100820.66;5031155;28;20496;-71
2021/04/11 11:32:36;;;;;;;5.15;2.67;;;;;;;6.31;100.00;100813.84;5061522;28;20041;-71
2021/04/11 11:35:07;;;;;;;7.10;3.30;;;;;;;6.31;100.00;100823.66;5030864;28;20037;-71
2021/04/11 11:37:39;;;;;;;7.45;2.65;;;;;;;6.17;100.00;100832.28;5037785;28;20033;-71
2021/04/11 11:40:14;;;;;;;4.20;2.58;;;;;;;6.13;100.00;100820.00;5032307;28;20453;-71
2021/04/11 11:42:53;;;;;;;4.25;2.88;;;;;;;6.24;100.00;100828.38;5032316;28;20068;-71
2021/04/11 11:45:39;;;;;;;5.78;3.67;;;;;;;6.22;100.00;100834.75;5029928;28;20032;-71
2021/04/11 11:48:31;;;;;;;7.60;3.25;;;;;;;6.22;100.00;100840.06;5034069;28;20104;-71
2021/04/11 11:51:20;;;;;;;8.33;4.30;;;;;;;6.37;100.00;100850.91;5030357;28;20065;-72
2021/04/11 11:54:16;;;;;;;6.95;2.70;;;;;;;6.43;100.00;100845.28;5029345;28;20310;-70
2021/04/11 11:56:48;;;;;;;7.63;2.90;;;;;;;6.50;100.00;100846.75;5030570;28;20220;-73
2021/04/11 11:59:25;;;;;;;3.85;3.08;;;;;;;6.48;100.00;100855.78;5030020;28;20037;-71
2021/04/11 12:02:13;;;;;;;9.45;2.70;;;;;;;6.47;100.00;100854.91;5026614;28;20044;-70
2021/04/11 12:04:53;;;;;;;7.40;2.42;;;;;;;6.49;100.00;100855.69;5030117;28;20477;-71
2021/04/11 12:07:29;;;;;;;6.53;3.03;;;;;;;6.51;100.00;100858.28;5030969;28;20029;-71
2021/04/11 12:10:10;;;;;;;5.75;2.80;;;;;;;6.46;100.00;100854.97;5031060;28;20025;-71
2021/04/11 12:12:45;;;;;;;9.82;3.75;;;;;;;6.49;100.00;100865.47;5026727;28;20487;-71